METAR Formatted Surface Weather Observation
Issued by NWS

Home | Current Version | Previous Version | Text Only | Print | Product List | Glossary On
Versions: 1 2 3 4 5
000
SPZS31 NSTU 191240
MTRSPP
SPECI NSTU 191236Z 09019KT 1SM SHRA SCT012 OVC033 25/24 A2975=


USA.gov is the U.S. government's official web portal to all federal, state and local government web resources and services.